sensor_id;sensor_type;location;lat;lon;timestamp;P1;durP1;ratioP1;P2;durP2;ratioP2
51266;SDS011;37338;47.426;19.204;2023-05-09T00:00:24;3.97;;;1.80;;
51266;SDS011;37338;47.426;19.204;2023-05-09T00:02:50;3.97;;;2.07;;
51266;SDS011;37338;47.426;19.204;2023-05-09T00:05:15;3.07;;;2.17;;
51266;SDS011;37338;47.426;19.204;2023-05-09T00:07:41;3.00;;;2.40;;
51266;SDS011;37338;47.426;19.204;2023-05-09T00:10:06;4.93;;;2.00;;
51266;SDS011;37338;47.426;19.204;2023-05-09T00:12:32;2.50;;;1.80;;
51266;SDS011;37338;47.426;19.204;2023-05-09T00:14:58;2.63;;;1.80;;
51266;SDS011;37338;47.426;19.204;2023-05-09T00:17:23;2.77;;;2.27;;
51266;SDS011;37338;47.426;19.204;2023-05-09T00:19:49;4.27;;;2.40;;
51266;SDS011;37338;47.426;19.204;2023-05-09T00:22:15;3.80;;;2.07;;
51266;SDS011;37338;47.426;19.204;2023-05-09T00:24:41;3.10;;;1.90;;
51266;SDS011;37338;47.426;19.204;2023-05-09T00:27:07;3.63;;;2.63;;
51266;SDS011;37338;47.426;19.204;2023-05-09T00:29:33;3.73;;;2.37;;
51266;SDS011;37338;47.426;19.204;2023-05-09T00:31:59;3.03;;;2.07;;
51266;SDS011;37338;47.426;19.204;2023-05-09T00:34:24;2.60;;;2.13;;
51266;SDS011;37338;47.426;19.204;2023-05-09T00:36:50;3.60;;;2.23;;
51266;SDS011;37338;47.426;19.204;2023-05-09T00:39:15;3.33;;;2.43;;
51266;SDS011;37338;47.426;19.204;2023-05-09T00:41:41;2.70;;;2.10;;
51266;SDS011;37338;47.426;19.204;2023-05-09T00:44:06;2.67;;;2.27;;
51266;SDS011;37338;47.426;19.204;2023-05-09T00:46:32;3.20;;;1.80;;
51266;SDS011;37338;47.426;19.204;2023-05-09T00:48:57;3.67;;;1.87;;
51266;SDS011;37338;47.426;19.204;2023-05-09T00:51:23;2.30;;;1.90;;
51266;SDS011;37338;47.426;19.204;2023-05-09T00:53:49;8.47;;;2.20;;
51266;SDS011;37338;47.426;19.204;2023-05-09T00:56:15;4.30;;;1.80;;
51266;SDS011;37338;47.426;19.204;2023-05-09T00:58:41;2.73;;;2.03;;
51266;SDS011;37338;47.426;19.204;2023-05-09T01:01:06;2.70;;;2.10;;
51266;SDS011;37338;47.426;19.204;2023-05-09T01:03:32;3.60;;;1.90;;
51266;SDS011;37338;47.426;19.204;2023-05-09T01:06:06;2.63;;;1.80;;
51266;SDS011;37338;47.426;19.204;2023-05-09T01:11:09;6.10;;;1.97;;
51266;SDS011;37338;47.426;19.204;2023-05-09T01:13:48;3.63;;;2.10;;
51266;SDS011;37338;47.426;19.204;2023-05-09T01:16:24;2.53;;;1.80;;
51266;SDS011;37338;47.426;19.204;2023-05-09T01:21:29;3.97;;;2.10;;
51266;SDS011;37338;47.426;19.204;2023-05-09T01:24:12;7.20;;;2.13;;
51266;SDS011;37338;47.426;19.204;2023-05-09T01:26:44;3.23;;;1.63;;
51266;SDS011;37338;47.426;19.204;2023-05-09T01:32:08;3.37;;;2.20;;
51266;SDS011;37338;47.426;19.204;2023-05-09T01:34:37;4.27;;;2.50;;
51266;SDS011;37338;47.426;19.204;2023-05-09T01:37:04;4.10;;;2.60;;
51266;SDS011;37338;47.426;19.204;2023-05-09T01:39:31;5.27;;;2.10;;
51266;SDS011;37338;47.426;19.204;2023-05-09T01:41:59;5.53;;;2.60;;
51266;SDS011;37338;47.426;19.204;2023-05-09T01:44:27;2.60;;;1.67;;
51266;SDS011;37338;47.426;19.204;2023-05-09T01:46:56;2.97;;;2.47;;
51266;SDS011;37338;47.426;19.204;2023-05-09T01:49:22;5.80;;;2.17;;
51266;SDS011;37338;47.426;19.204;2023-05-09T01:51:49;3.80;;;2.27;;
51266;SDS011;37338;47.426;19.204;2023-05-09T01:54:15;3.83;;;2.97;;
51266;SDS011;37338;47.426;19.204;2023-05-09T01:56:41;3.67;;;2.57;;
51266;SDS011;37338;47.426;19.204;2023-05-09T01:59:07;3.40;;;2.37;;
51266;SDS011;37338;47.426;19.204;2023-05-09T02:01:33;4.50;;;2.77;;
51266;SDS011;37338;47.426;19.204;2023-05-09T02:03:59;2.23;;;2.03;;
51266;SDS011;37338;47.426;19.204;2023-05-09T02:06:24;3.37;;;2.23;;
51266;SDS011;37338;47.426;19.204;2023-05-09T02:08:53;5.17;;;2.53;;
51266;SDS011;37338;47.426;19.204;2023-05-09T02:11:19;6.63;;;3.10;;
51266;SDS011;37338;47.426;19.204;2023-05-09T02:13:45;5.47;;;2.80;;
51266;SDS011;37338;47.426;19.204;2023-05-09T02:16:10;6.27;;;2.83;;
51266;SDS011;37338;47.426;19.204;2023-05-09T02:18:36;4.70;;;2.70;;
51266;SDS011;37338;47.426;19.204;2023-05-09T02:21:02;4.03;;;3.00;;
51266;SDS011;37338;47.426;19.204;2023-05-09T02:23:28;4.07;;;2.40;;
51266;SDS011;37338;47.426;19.204;2023-05-09T02:25:53;5.80;;;2.73;;
51266;SDS011;37338;47.426;19.204;2023-05-09T02:28:19;5.13;;;2.73;;
51266;SDS011;37338;47.426;19.204;2023-05-09T02:30:46;5.83;;;2.27;;
51266;SDS011;37338;47.426;19.204;2023-05-09T02:33:13;4.27;;;2.90;;
51266;SDS011;37338;47.426;19.204;2023-05-09T02:35:40;4.60;;;2.27;;
51266;SDS011;37338;47.426;19.204;2023-05-09T02:38:06;5.07;;;2.93;;
51266;SDS011;37338;47.426;19.204;2023-05-09T02:40:32;5.57;;;2.60;;
51266;SDS011;37338;47.426;19.204;2023-05-09T02:42:57;5.93;;;4.00;;
51266;SDS011;37338;47.426;19.204;2023-05-09T02:45:23;10.37;;;2.73;;
51266;SDS011;37338;47.426;19.204;2023-05-09T02:47:49;5.93;;;3.03;;
51266;SDS011;37338;47.426;19.204;2023-05-09T02:50:14;5.13;;;2.60;;
51266;SDS011;37338;47.426;19.204;2023-05-09T02:52:39;4.57;;;2.73;;
51266;SDS011;37338;47.426;19.204;2023-05-09T02:55:05;2.93;;;2.30;;
51266;SDS011;37338;47.426;19.204;2023-05-09T02:57:34;4.90;;;2.67;;
51266;SDS011;37338;47.426;19.204;2023-05-09T02:59:59;3.63;;;2.80;;
51266;SDS011;37338;47.426;19.204;2023-05-09T03:02:25;3.20;;;2.90;;
51266;SDS011;37338;47.426;19.204;2023-05-09T03:04:50;6.23;;;3.37;;
51266;SDS011;37338;47.426;19.204;2023-05-09T03:07:16;6.57;;;3.53;;
51266;SDS011;37338;47.426;19.204;2023-05-09T03:09:41;4.80;;;2.87;;
51266;SDS011;37338;47.426;19.204;2023-05-09T03:12:07;6.03;;;3.13;;
51266;SDS011;37338;47.426;19.204;2023-05-09T03:14:32;6.40;;;3.60;;
51266;SDS011;37338;47.426;19.204;2023-05-09T03:16:57;5.33;;;3.23;;
51266;SDS011;37338;47.426;19.204;2023-05-09T03:19:23;6.83;;;3.43;;
51266;SDS011;37338;47.426;19.204;2023-05-09T03:21:48;6.50;;;4.57;;
51266;SDS011;37338;47.426;19.204;2023-05-09T03:24:13;4.53;;;3.33;;
51266;SDS011;37338;47.426;19.204;2023-05-09T03:26:39;5.50;;;3.20;;
51266;SDS011;37338;47.426;19.204;2023-05-09T03:29:04;4.23;;;3.00;;
51266;SDS011;37338;47.426;19.204;2023-05-09T03:31:30;7.03;;;3.00;;
51266;SDS011;37338;47.426;19.204;2023-05-09T03:33:55;7.47;;;3.80;;
51266;SDS011;37338;47.426;19.204;2023-05-09T03:36:21;5.07;;;3.50;;
51266;SDS011;37338;47.426;19.204;2023-05-09T03:38:47;8.77;;;4.77;;
51266;SDS011;37338;47.426;19.204;2023-05-09T03:41:14;12.30;;;5.37;;
51266;SDS011;37338;47.426;19.204;2023-05-09T03:43:40;8.00;;;3.63;;
51266;SDS011;37338;47.426;19.204;2023-05-09T03:46:06;9.93;;;3.93;;
51266;SDS011;37338;47.426;19.204;2023-05-09T03:48:31;7.90;;;3.03;;
51266;SDS011;37338;47.426;19.204;2023-05-09T03:50:56;6.47;;;3.77;;
51266;SDS011;37338;47.426;19.204;2023-05-09T03:53:22;19.40;;;5.20;;
51266;SDS011;37338;47.426;19.204;2023-05-09T03:55:47;15.27;;;4.40;;
51266;SDS011;37338;47.426;19.204;2023-05-09T03:58:12;6.33;;;3.57;;
51266;SDS011;37338;47.426;19.204;2023-05-09T04:00:39;12.07;;;4.03;;
51266;SDS011;37338;47.426;19.204;2023-05-09T04:03:04;8.60;;;3.83;;
51266;SDS011;37338;47.426;19.204;2023-05-09T04:05:30;7.03;;;3.47;;
51266;SDS011;37338;47.426;19.204;2023-05-09T04:07:57;10.73;;;3.23;;
51266;SDS011;37338;47.426;19.204;2023-05-09T04:10:23;8.63;;;3.70;;
51266;SDS011;37338;47.426;19.204;2023-05-09T04:12:49;4.43;;;3.20;;
51266;SDS011;37338;47.426;19.204;2023-05-09T04:15:15;4.67;;;3.43;;
51266;SDS011;37338;47.426;19.204;2023-05-09T04:17:40;10.73;;;3.60;;
51266;SDS011;37338;47.426;19.204;2023-05-09T04:20:05;7.67;;;3.93;;
51266;SDS011;37338;47.426;19.204;2023-05-09T04:22:32;11.37;;;4.97;;
51266;SDS011;37338;47.426;19.204;2023-05-09T04:24:57;5.63;;;3.67;;
51266;SDS011;37338;47.426;19.204;2023-05-09T04:27:23;6.07;;;3.60;;
51266;SDS011;37338;47.426;19.204;2023-05-09T04:29:48;5.97;;;3.23;;
51266;SDS011;37338;47.426;19.204;2023-05-09T04:32:14;5.27;;;3.57;;
51266;SDS011;37338;47.426;19.204;2023-05-09T04:34:39;6.33;;;3.50;;
51266;SDS011;37338;47.426;19.204;2023-05-09T04:37:05;6.57;;;3.23;;
51266;SDS011;37338;47.426;19.204;2023-05-09T04:39:30;6.20;;;3.60;;
51266;SDS011;37338;47.426;19.204;2023-05-09T04:41:56;4.90;;;3.20;;
51266;SDS011;37338;47.426;19.204;2023-05-09T04:44:21;4.43;;;2.80;;
51266;SDS011;37338;47.426;19.204;2023-05-09T04:46:47;11.60;;;3.10;;
51266;SDS011;37338;47.426;19.204;2023-05-09T04:49:14;9.50;;;4.50;;
51266;SDS011;37338;47.426;19.204;2023-05-09T04:51:39;11.97;;;3.90;;
51266;SDS011;37338;47.426;19.204;2023-05-09T04:54:06;9.23;;;3.47;;
51266;SDS011;37338;47.426;19.204;2023-05-09T04:56:31;4.33;;;3.93;;
51266;SDS011;37338;47.426;19.204;2023-05-09T04:58:57;8.23;;;3.20;;
51266;SDS011;37338;47.426;19.204;2023-05-09T05:01:22;10.30;;;2.90;;
51266;SDS011;37338;47.426;19.204;2023-05-09T05:03:47;11.70;;;4.20;;
51266;SDS011;37338;47.426;19.204;2023-05-09T05:06:13;18.77;;;3.60;;
51266;SDS011;37338;47.426;19.204;2023-05-09T05:08:38;8.87;;;3.57;;
51266;SDS011;37338;47.426;19.204;2023-05-09T05:11:03;8.77;;;3.87;;
51266;SDS011;37338;47.426;19.204;2023-05-09T05:13:29;5.73;;;3.07;;
51266;SDS011;37338;47.426;19.204;2023-05-09T05:15:54;14.93;;;3.77;;
51266;SDS011;37338;47.426;19.204;2023-05-09T05:18:20;3.30;;;2.30;;
51266;SDS011;37338;47.426;19.204;2023-05-09T05:20:46;3.67;;;2.97;;
51266;SDS011;37338;47.426;19.204;2023-05-09T05:23:11;6.30;;;2.87;;
51266;SDS011;37338;47.426;19.204;2023-05-09T05:25:37;7.83;;;2.77;;
51266;SDS011;37338;47.426;19.204;2023-05-09T05:28:02;3.90;;;2.22;;
51266;SDS011;37338;47.426;19.204;2023-05-09T05:30:28;4.82;;;3.00;;
51266;SDS011;37338;47.426;19.204;2023-05-09T05:32:54;7.57;;;3.42;;
51266;SDS011;37338;47.426;19.204;2023-05-09T05:35:19;22.40;;;4.38;;
51266;SDS011;37338;47.426;19.204;2023-05-09T05:37:47;14.93;;;4.22;;
51266;SDS011;37338;47.426;19.204;2023-05-09T05:40:12;4.10;;;2.65;;
51266;SDS011;37338;47.426;19.204;2023-05-09T05:42:38;20.33;;;8.00;;
51266;SDS011;37338;47.426;19.204;2023-05-09T05:45:03;10.98;;;3.10;;
51266;SDS011;37338;47.426;19.204;2023-05-09T05:47:32;4.15;;;2.30;;
51266;SDS011;37338;47.426;19.204;2023-05-09T05:49:59;2.70;;;2.50;;
51266;SDS011;37338;47.426;19.204;2023-05-09T05:52:25;4.28;;;2.20;;
51266;SDS011;37338;47.426;19.204;2023-05-09T05:54:51;2.20;;;2.00;;
51266;SDS011;37338;47.426;19.204;2023-05-09T05:57:17;5.60;;;3.03;;
51266;SDS011;37338;47.426;19.204;2023-05-09T05:59:42;6.60;;;2.13;;
51266;SDS011;37338;47.426;19.204;2023-05-09T06:02:07;9.32;;;2.20;;
51266;SDS011;37338;47.426;19.204;2023-05-09T06:04:33;4.57;;;2.50;;
51266;SDS011;37338;47.426;19.204;2023-05-09T06:06:58;4.05;;;2.47;;
51266;SDS011;37338;47.426;19.204;2023-05-09T06:09:24;3.33;;;1.83;;
51266;SDS011;37338;47.426;19.204;2023-05-09T06:11:49;4.72;;;2.10;;
51266;SDS011;37338;47.426;19.204;2023-05-09T06:14:14;5.78;;;2.05;;
51266;SDS011;37338;47.426;19.204;2023-05-09T06:16:40;3.83;;;2.20;;
51266;SDS011;37338;47.426;19.204;2023-05-09T06:19:05;2.47;;;2.28;;
51266;SDS011;37338;47.426;19.204;2023-05-09T06:21:31;3.88;;;2.00;;
51266;SDS011;37338;47.426;19.204;2023-05-09T06:23:58;3.80;;;1.92;;
51266;SDS011;37338;47.426;19.204;2023-05-09T06:26:23;3.08;;;2.05;;
51266;SDS011;37338;47.426;19.204;2023-05-09T06:28:48;2.15;;;1.95;;
51266;SDS011;37338;47.426;19.204;2023-05-09T06:31:14;3.08;;;2.60;;
51266;SDS011;37338;47.426;19.204;2023-05-09T06:33:39;2.65;;;2.45;;
51266;SDS011;37338;47.426;19.204;2023-05-09T06:36:05;3.47;;;2.28;;
51266;SDS011;37338;47.426;19.204;2023-05-09T06:38:30;4.32;;;2.17;;
51266;SDS011;37338;47.426;19.204;2023-05-09T06:40:56;2.28;;;2.08;;
51266;SDS011;37338;47.426;19.204;2023-05-09T06:43:21;2.33;;;2.10;;
51266;SDS011;37338;47.426;19.204;2023-05-09T06:45:46;6.72;;;2.28;;
51266;SDS011;37338;47.426;19.204;2023-05-09T06:48:12;8.00;;;2.03;;
51266;SDS011;37338;47.426;19.204;2023-05-09T06:50:37;2.92;;;1.92;;
51266;SDS011;37338;47.426;19.204;2023-05-09T06:53:03;2.45;;;1.80;;
51266;SDS011;37338;47.426;19.204;2023-05-09T06:55:28;2.65;;;1.90;;
51266;SDS011;37338;47.426;19.204;2023-05-09T06:57:54;2.60;;;1.80;;
51266;SDS011;37338;47.426;19.204;2023-05-09T07:00:19;4.35;;;1.88;;
51266;SDS011;37338;47.426;19.204;2023-05-09T07:02:45;1.90;;;1.80;;
51266;SDS011;37338;47.426;19.204;2023-05-09T07:05:10;2.78;;;1.88;;
51266;SDS011;37338;47.426;19.204;2023-05-09T07:07:36;3.00;;;2.00;;
51266;SDS011;37338;47.426;19.204;2023-05-09T07:10:01;2.83;;;1.75;;
51266;SDS011;37338;47.426;19.204;2023-05-09T07:12:29;2.65;;;2.00;;
51266;SDS011;37338;47.426;19.204;2023-05-09T07:14:55;3.47;;;1.63;;
51266;SDS011;37338;47.426;19.204;2023-05-09T07:17:21;3.47;;;1.88;;
51266;SDS011;37338;47.426;19.204;2023-05-09T07:19:47;2.97;;;1.58;;
51266;SDS011;37338;47.426;19.204;2023-05-09T07:22:12;5.65;;;1.75;;
51266;SDS011;37338;47.426;19.204;2023-05-09T07:24:37;1.60;;;1.50;;
51266;SDS011;37338;47.426;19.204;2023-05-09T07:27:03;4.82;;;2.28;;
51266;SDS011;37338;47.426;19.204;2023-05-09T07:29:28;1.27;;;1.20;;
51266;SDS011;37338;47.426;19.204;2023-05-09T07:31:53;3.45;;;1.00;;
51266;SDS011;37338;47.426;19.204;2023-05-09T07:34:19;1.30;;;1.13;;
51266;SDS011;37338;47.426;19.204;2023-05-09T07:36:44;2.22;;;1.45;;
51266;SDS011;37338;47.426;19.204;2023-05-09T07:39:10;5.85;;;1.90;;
51266;SDS011;37338;47.426;19.204;2023-05-09T07:41:35;5.63;;;1.45;;
51266;SDS011;37338;47.426;19.204;2023-05-09T07:44:01;1.65;;;1.25;;
51266;SDS011;37338;47.426;19.204;2023-05-09T07:46:26;1.40;;;1.30;;
51266;SDS011;37338;47.426;19.204;2023-05-09T07:48:51;7.50;;;1.88;;
51266;SDS011;37338;47.426;19.204;2023-05-09T07:51:17;6.45;;;2.60;;
51266;SDS011;37338;47.426;19.204;2023-05-09T07:53:42;2.92;;;1.42;;
51266;SDS011;37338;47.426;19.204;2023-05-09T07:56:08;1.52;;;1.27;;
51266;SDS011;37338;47.426;19.204;2023-05-09T07:58:33;2.15;;;1.20;;
51266;SDS011;37338;47.426;19.204;2023-05-09T08:00:58;2.28;;;1.20;;
51266;SDS011;37338;47.426;19.204;2023-05-09T08:03:24;3.83;;;1.10;;
51266;SDS011;37338;47.426;19.204;2023-05-09T08:05:52;5.55;;;1.23;;
51266;SDS011;37338;47.426;19.204;2023-05-09T08:08:19;1.60;;;1.50;;
51266;SDS011;37338;47.426;19.204;2023-05-09T08:10:45;1.80;;;0.88;;
51266;SDS011;37338;47.426;19.204;2023-05-09T08:13:10;1.17;;;1.08;;
51266;SDS011;37338;47.426;19.204;2023-05-09T08:15:35;1.20;;;1.17;;
51266;SDS011;37338;47.426;19.204;2023-05-09T08:18:01;7.75;;;1.27;;
51266;SDS011;37338;47.426;19.204;2023-05-09T08:20:26;2.42;;;0.93;;
51266;SDS011;37338;47.426;19.204;2023-05-09T08:22:52;1.25;;;1.10;;
51266;SDS011;37338;47.426;19.204;2023-05-09T08:25:17;5.18;;;0.90;;
51266;SDS011;37338;47.426;19.204;2023-05-09T08:27:44;1.40;;;1.23;;
51266;SDS011;37338;47.426;19.204;2023-05-09T08:30:10;2.05;;;0.90;;
51266;SDS011;37338;47.426;19.204;2023-05-09T08:32:36;4.03;;;1.33;;
51266;SDS011;37338;47.426;19.204;2023-05-09T08:35:01;3.75;;;0.93;;
51266;SDS011;37338;47.426;19.204;2023-05-09T08:37:26;5.57;;;1.10;;
51266;SDS011;37338;47.426;19.204;2023-05-09T08:39:52;2.38;;;1.10;;
51266;SDS011;37338;47.426;19.204;2023-05-09T08:42:18;6.55;;;1.13;;
51266;SDS011;37338;47.426;19.204;2023-05-09T08:44:46;3.15;;;0.70;;
51266;SDS011;37338;47.426;19.204;2023-05-09T08:47:12;3.58;;;1.00;;
51266;SDS011;37338;47.426;19.204;2023-05-09T08:49:38;2.53;;;2.28;;
51266;SDS011;37338;47.426;19.204;2023-05-09T08:52:04;9.02;;;1.38;;
51266;SDS011;37338;47.426;19.204;2023-05-09T08:54:30;13.00;;;0.90;;
51266;SDS011;37338;47.426;19.204;2023-05-09T08:56:55;2.90;;;1.08;;
51266;SDS011;37338;47.426;19.204;2023-05-09T08:59:21;3.80;;;1.02;;
51266;SDS011;37338;47.426;19.204;2023-05-09T09:01:47;3.22;;;0.93;;
51266;SDS011;37338;47.426;19.204;2023-05-09T09:04:12;1.25;;;0.93;;
51266;SDS011;37338;47.426;19.204;2023-05-09T09:06:38;3.45;;;1.00;;
51266;SDS011;37338;47.426;19.204;2023-05-09T09:09:04;2.60;;;1.05;;
51266;SDS011;37338;47.426;19.204;2023-05-09T09:11:30;1.98;;;0.88;;
51266;SDS011;37338;47.426;19.204;2023-05-09T09:14:01;2.05;;;0.88;;
51266;SDS011;37338;47.426;19.204;2023-05-09T09:16:31;4.00;;;0.85;;
51266;SDS011;37338;47.426;19.204;2023-05-09T09:18:57;4.13;;;0.80;;
51266;SDS011;37338;47.426;19.204;2023-05-09T09:21:22;6.13;;;1.17;;
51266;SDS011;37338;47.426;19.204;2023-05-09T09:23:48;4.43;;;0.70;;
51266;SDS011;37338;47.426;19.204;2023-05-09T09:26:14;7.43;;;1.40;;
51266;SDS011;37338;47.426;19.204;2023-05-09T09:28:40;16.05;;;2.15;;
51266;SDS011;37338;47.426;19.204;2023-05-09T09:31:18;3.60;;;1.08;;
51266;SDS011;37338;47.426;19.204;2023-05-09T09:33:48;3.08;;;1.45;;
51266;SDS011;37338;47.426;19.204;2023-05-09T09:36:13;0.80;;;0.80;;
51266;SDS011;37338;47.426;19.204;2023-05-09T09:38:39;1.00;;;1.00;;
51266;SDS011;37338;47.426;19.204;2023-05-09T09:41:05;1.02;;;0.57;;
51266;SDS011;37338;47.426;19.204;2023-05-09T09:43:31;4.50;;;1.00;;
51266;SDS011;37338;47.426;19.204;2023-05-09T09:46:00;5.15;;;0.90;;
51266;SDS011;37338;47.426;19.204;2023-05-09T09:48:27;0.90;;;0.90;;
51266;SDS011;37338;47.426;19.204;2023-05-09T09:50:57;1.83;;;1.05;;
51266;SDS011;37338;47.426;19.204;2023-05-09T09:53:28;5.13;;;1.30;;
51266;SDS011;37338;47.426;19.204;2023-05-09T09:55:54;2.78;;;1.02;;
51266;SDS011;37338;47.426;19.204;2023-05-09T09:58:20;2.35;;;1.10;;
51266;SDS011;37338;47.426;19.204;2023-05-09T10:01:07;4.55;;;1.23;;
51266;SDS011;37338;47.426;19.204;2023-05-09T10:03:38;4.43;;;1.20;;
51266;SDS011;37338;47.426;19.204;2023-05-09T10:06:04;1.60;;;1.50;;
51266;SDS011;37338;47.426;19.204;2023-05-09T10:08:34;1.95;;;0.70;;
51266;SDS011;37338;47.426;19.204;2023-05-09T10:10:59;6.47;;;1.10;;
51266;SDS011;37338;47.426;19.204;2023-05-09T10:13:25;2.97;;;1.00;;
51266;SDS011;37338;47.426;19.204;2023-05-09T10:15:52;6.60;;;1.20;;
51266;SDS011;37338;47.426;19.204;2023-05-09T10:18:19;1.20;;;0.85;;
51266;SDS011;37338;47.426;19.204;2023-05-09T10:20:50;5.57;;;1.90;;
51266;SDS011;37338;47.426;19.204;2023-05-09T10:23:15;14.95;;;1.50;;
51266;SDS011;37338;47.426;19.204;2023-05-09T10:25:52;8.43;;;1.17;;
51266;SDS011;37338;47.426;19.204;2023-05-09T10:28:22;7.05;;;1.25;;
51266;SDS011;37338;47.426;19.204;2023-05-09T10:33:49;8.68;;;1.50;;
51266;SDS011;37338;47.426;19.204;2023-05-09T10:36:18;11.43;;;1.25;;
51266;SDS011;37338;47.426;19.204;2023-05-09T10:38:48;5.47;;;1.23;;
51266;SDS011;37338;47.426;19.204;2023-05-09T10:41:17;7.88;;;1.48;;
51266;SDS011;37338;47.426;19.204;2023-05-09T10:43:44;36.10;;;4.78;;
51266;SDS011;37338;47.426;19.204;2023-05-09T10:46:09;17.60;;;2.65;;
51266;SDS011;37338;47.426;19.204;2023-05-09T10:48:36;5.55;;;1.20;;
51266;SDS011;37338;47.426;19.204;2023-05-09T10:51:02;3.50;;;1.25;;
51266;SDS011;37338;47.426;19.204;2023-05-09T10:53:41;2.47;;;1.40;;
51266;SDS011;37338;47.426;19.204;2023-05-09T10:56:08;1.27;;;1.17;;
51266;SDS011;37338;47.426;19.204;2023-05-09T10:58:37;5.50;;;1.40;;
51266;SDS011;37338;47.426;19.204;2023-05-09T11:01:04;27.98;;;1.90;;
51266;SDS011;37338;47.426;19.204;2023-05-09T11:09:35;1.23;;;1.10;;
51266;SDS011;37338;47.426;19.204;2023-05-09T11:12:11;8.10;;;1.30;;
51266;SDS011;37338;47.426;19.204;2023-05-09T11:22:11;3.25;;;1.13;;
51266;SDS011;37338;47.426;19.204;2023-05-09T11:27:38;4.97;;;1.13;;
51266;SDS011;37338;47.426;19.204;2023-05-09T11:30:07;1.88;;;1.10;;
51266;SDS011;37338;47.426;19.204;2023-05-09T11:32:42;6.18;;;1.23;;
51266;SDS011;37338;47.426;19.204;2023-05-09T11:35:09;6.03;;;1.25;;
51266;SDS011;37338;47.426;19.204;2023-05-09T11:37:45;3.90;;;0.98;;
51266;SDS011;37338;47.426;19.204;2023-05-09T11:40:12;4.90;;;1.20;;
51266;SDS011;37338;47.426;19.204;2023-05-09T11:42:42;0.80;;;0.80;;
51266;SDS011;37338;47.426;19.204;2023-05-09T11:45:09;4.93;;;0.93;;
51266;SDS011;37338;47.426;19.204;2023-05-09T11:47:36;1.25;;;0.85;;
51266;SDS011;37338;47.426;19.204;2023-05-09T11:50:01;2.33;;;1.10;;
51266;SDS011;37338;47.426;19.204;2023-05-09T11:52:30;3.28;;;0.80;;
51266;SDS011;37338;47.426;19.204;2023-05-09T11:54:56;2.38;;;1.00;;
51266;SDS011;37338;47.426;19.204;2023-05-09T11:57:23;7.20;;;1.20;;
51266;SDS011;37338;47.426;19.204;2023-05-09T11:59:48;0.80;;;0.80;;
51266;SDS011;37338;47.426;19.204;2023-05-09T12:02:13;17.98;;;1.48;;
51266;SDS011;37338;47.426;19.204;2023-05-09T12:04:39;1.52;;;0.98;;
51266;SDS011;37338;47.426;19.204;2023-05-09T12:07:04;3.03;;;1.00;;
51266;SDS011;37338;47.426;19.204;2023-05-09T12:09:31;9.77;;;1.48;;
51266;SDS011;37338;47.426;19.204;2023-05-09T12:12:01;2.28;;;1.13;;
51266;SDS011;37338;47.426;19.204;2023-05-09T12:14:33;19.08;;;1.63;;
51266;SDS011;37338;47.426;19.204;2023-05-09T12:16:58;8.77;;;1.02;;
51266;SDS011;37338;47.426;19.204;2023-05-09T12:19:25;2.63;;;1.25;;
51266;SDS011;37338;47.426;19.204;2023-05-09T12:21:57;3.55;;;0.93;;
51266;SDS011;37338;47.426;19.204;2023-05-09T12:24:24;21.63;;;1.63;;
51266;SDS011;37338;47.426;19.204;2023-05-09T12:26:53;4.57;;;0.80;;
51266;SDS011;37338;47.426;19.204;2023-05-09T12:29:21;7.68;;;1.15;;
51266;SDS011;37338;47.426;19.204;2023-05-09T12:31:48;0.70;;;0.70;;
51266;SDS011;37338;47.426;19.204;2023-05-09T12:34:14;5.55;;;1.10;;
51266;SDS011;37338;47.426;19.204;2023-05-09T12:36:39;16.67;;;2.67;;
51266;SDS011;37338;47.426;19.204;2023-05-09T12:39:08;3.75;;;1.10;;
51266;SDS011;37338;47.426;19.204;2023-05-09T12:41:34;10.07;;;1.42;;
51266;SDS011;37338;47.426;19.204;2023-05-09T12:44:06;21.20;;;1.58;;
51266;SDS011;37338;47.426;19.204;2023-05-09T12:46:32;39.80;;;2.20;;
51266;SDS011;37338;47.426;19.204;2023-05-09T12:48:58;11.40;;;1.98;;
51266;SDS011;37338;47.426;19.204;2023-05-09T12:51:23;4.63;;;1.17;;
51266;SDS011;37338;47.426;19.204;2023-05-09T12:53:49;0.80;;;0.80;;
51266;SDS011;37338;47.426;19.204;2023-05-09T12:56:18;1.27;;;0.70;;
51266;SDS011;37338;47.426;19.204;2023-05-09T12:58:51;0.90;;;0.80;;
51266;SDS011;37338;47.426;19.204;2023-05-09T13:01:18;8.82;;;1.10;;
51266;SDS011;37338;47.426;19.204;2023-05-09T13:03:47;1.10;;;0.80;;
51266;SDS011;37338;47.426;19.204;2023-05-09T13:06:15;7.28;;;1.33;;
51266;SDS011;37338;47.426;19.204;2023-05-09T13:08:40;8.10;;;0.93;;
51266;SDS011;37338;47.426;19.204;2023-05-09T13:11:09;3.22;;;0.90;;
51266;SDS011;37338;47.426;19.204;2023-05-09T13:13:36;5.50;;;0.80;;
51266;SDS011;37338;47.426;19.204;2023-05-09T13:16:03;2.17;;;0.80;;
51266;SDS011;37338;47.426;19.204;2023-05-09T13:18:29;3.92;;;0.80;;
51266;SDS011;37338;47.426;19.204;2023-05-09T13:20:54;7.68;;;1.08;;
51266;SDS011;37338;47.426;19.204;2023-05-09T13:23:20;37.67;;;4.45;;
51266;SDS011;37338;47.426;19.204;2023-05-09T13:25:46;2.88;;;1.00;;
51266;SDS011;37338;47.426;19.204;2023-05-09T13:28:11;4.57;;;1.00;;
51266;SDS011;37338;47.426;19.204;2023-05-09T13:30:37;1.48;;;1.00;;
51266;SDS011;37338;47.426;19.204;2023-05-09T13:33:02;8.07;;;0.82;;
51266;SDS011;37338;47.426;19.204;2023-05-09T13:35:28;6.78;;;0.90;;
51266;SDS011;37338;47.426;19.204;2023-05-09T13:37:54;1.42;;;0.75;;
51266;SDS011;37338;47.426;19.204;2023-05-09T13:40:19;3.97;;;0.77;;
51266;SDS011;37338;47.426;19.204;2023-05-09T13:42:44;1.58;;;0.60;;
51266;SDS011;37338;47.426;19.204;2023-05-09T13:45:12;3.28;;;0.70;;
51266;SDS011;37338;47.426;19.204;2023-05-09T13:47:37;2.35;;;0.90;;
51266;SDS011;37338;47.426;19.204;2023-05-09T13:50:03;0.95;;;0.90;;
51266;SDS011;37338;47.426;19.204;2023-05-09T13:52:28;0.90;;;0.52;;
51266;SDS011;37338;47.426;19.204;2023-05-09T13:54:54;7.10;;;1.20;;
51266;SDS011;37338;47.426;19.204;2023-05-09T13:57:19;2.38;;;0.80;;
51266;SDS011;37338;47.426;19.204;2023-05-09T13:59:44;4.72;;;1.00;;
51266;SDS011;37338;47.426;19.204;2023-05-09T14:02:10;2.70;;;0.57;;
51266;SDS011;37338;47.426;19.204;2023-05-09T14:04:35;5.82;;;1.20;;
51266;SDS011;37338;47.426;19.204;2023-05-09T14:07:01;4.03;;;0.77;;
51266;SDS011;37338;47.426;19.204;2023-05-09T14:09:27;2.65;;;0.80;;
51266;SDS011;37338;47.426;19.204;2023-05-09T14:11:53;4.13;;;0.98;;
51266;SDS011;37338;47.426;19.204;2023-05-09T14:14:20;1.65;;;0.73;;
51266;SDS011;37338;47.426;19.204;2023-05-09T14:16:47;10.35;;;1.23;;
51266;SDS011;37338;47.426;19.204;2023-05-09T14:19:12;1.38;;;0.52;;
51266;SDS011;37338;47.426;19.204;2023-05-09T14:21:41;3.95;;;1.15;;
51266;SDS011;37338;47.426;19.204;2023-05-09T14:24:08;2.03;;;0.98;;
51266;SDS011;37338;47.426;19.204;2023-05-09T14:26:34;4.13;;;1.10;;
51266;SDS011;37338;47.426;19.204;2023-05-09T14:28:59;2.88;;;0.68;;
51266;SDS011;37338;47.426;19.204;2023-05-09T14:31:26;1.20;;;0.98;;
51266;SDS011;37338;47.426;19.204;2023-05-09T14:33:52;4.82;;;0.90;;
51266;SDS011;37338;47.426;19.204;2023-05-09T14:36:18;5.95;;;1.00;;
51266;SDS011;37338;47.426;19.204;2023-05-09T14:38:43;7.30;;;1.00;;
51266;SDS011;37338;47.426;19.204;2023-05-09T14:41:10;6.68;;;0.95;;
51266;SDS011;37338;47.426;19.204;2023-05-09T14:43:37;4.25;;;1.45;;
51266;SDS011;37338;47.426;19.204;2023-05-09T14:46:02;3.97;;;0.75;;
51266;SDS011;37338;47.426;19.204;2023-05-09T14:48:28;1.33;;;0.85;;
51266;SDS011;37338;47.426;19.204;2023-05-09T14:50:53;2.85;;;1.60;;
51266;SDS011;37338;47.426;19.204;2023-05-09T14:53:21;9.48;;;1.88;;
51266;SDS011;37338;47.426;19.204;2023-05-09T14:55:47;3.80;;;1.13;;